createdAt,value
2023-01-02T00:01:42.814Z,146.63158
2023-01-02T00:06:44.899Z,144
2023-01-02T00:11:46.719Z,140.17834
2023-01-02T00:16:48.467Z,140.17834
2023-01-02T00:21:50.225Z,140.80511
2023-01-02T00:26:52.007Z,142.07074
2023-01-02T00:31:53.550Z,141.4359
2023-01-02T00:36:55.244Z,142.70968
2023-01-02T00:41:56.965Z,142.07074
2023-01-02T00:46:58.650Z,145.96721
2023-01-02T00:52:00.323Z,140.80511
2023-01-02T00:57:01.875Z,143.35275
2023-01-02T01:02:03.744Z,141.4359
2023-01-02T01:07:05.785Z,138.93671
2023-01-02T01:12:07.438Z,132.95706
2023-01-02T01:17:09.524Z,135.90031
2023-01-02T01:22:11.289Z,134.12346
2023-01-02T01:27:13.103Z,132.95706
2023-01-02T01:32:14.870Z,132.95706
2023-01-02T01:37:16.670Z,130.66667
2023-01-02T01:42:18.423Z,135.30435
2023-01-02T01:47:20.497Z,131.23404
2023-01-02T01:52:22.361Z,131.80488
2023-01-02T01:57:23.830Z,134.71207
2023-01-02T02:02:25.691Z,133.53846
2023-01-02T02:07:28.283Z,130.10272
2023-01-02T02:12:29.720Z,127.8806
2023-01-02T02:17:31.509Z,127.8806
2023-01-02T02:22:33.368Z,124.64516
2023-01-02T02:27:35.069Z,124.11696
2023-01-02T02:32:36.849Z,123.06977
2023-01-02T02:37:38.622Z,122.55072
2023-01-02T02:42:40.373Z,121.52161
2023-01-02T02:47:42.571Z,120
2023-01-02T02:52:44.523Z,122.03468
2023-01-02T02:57:46.308Z,124.11696
2023-01-02T03:02:48.257Z,122.55072
2023-01-02T03:07:50.372Z,122.55072
2023-01-02T03:12:51.895Z,122.55072
2023-01-02T03:17:53.866Z,121.52161
2023-01-02T03:22:55.526Z,121.01149
2023-01-02T03:27:57.153Z,122.55072
2023-01-02T03:32:58.682Z,126.24852
2023-01-02T03:38:00.120Z,124.64516
2023-01-02T03:43:02.065Z,128.43114
2023-01-02T03:48:03.876Z,128.43114
2023-01-02T03:53:05.512Z,128.98498
2023-01-02T03:58:07.253Z,129.54217
2023-01-02T04:03:09.102Z,128.43114
2023-01-02T04:08:11.446Z,130.66667
2023-01-02T04:13:13.281Z,126.78932
2023-01-02T04:18:15.133Z,134.12346
2023-01-02T04:23:17.076Z,132.3792
2023-01-02T04:28:18.908Z,135.90031
2023-01-02T04:33:20.569Z,131.23404
2023-01-02T04:38:22.646Z,140.80511
2023-01-02T04:43:24.414Z,128.98498
2023-01-02T04:48:26.333Z,127.33333
2023-01-02T04:53:28.265Z,121.52161
2023-01-02T04:58:30.204Z,131.80488
2023-01-02T05:03:31.751Z,135.30435
2023-01-02T05:08:33.462Z,132.3792
2023-01-02T05:13:35.088Z,132.95706
2023-01-02T05:18:36.734Z,136.5
2023-01-02T05:23:38.419Z,129.54217
2023-01-02T05:28:39.929Z,138.93671
2023-01-02T05:33:41.406Z,131.23404
2023-01-02T05:38:42.886Z,131.80488
2023-01-02T05:43:44.496Z,134.12346
2023-01-02T05:48:46.214Z,137.10345
2023-01-02T05:53:47.675Z,135.90031
2023-01-02T05:58:49.158Z,147.30033
2023-01-02T06:03:50.619Z,148.65116
2023-01-02T06:08:52.526Z,158.63415
2023-01-02T06:13:54.118Z,164.78853
2023-01-02T06:18:55.762Z,167.18841
2023-01-02T06:23:57.296Z,172.14815
2023-01-02T06:28:58.828Z,167.18841
2023-01-02T06:34:00.375Z,175.57895
2023-01-02T06:39:01.814Z,168.81752
2023-01-02T06:44:03.937Z,182.75969
2023-01-02T06:49:05.624Z,203.91561
2023-01-02T06:54:07.082Z,222.73303
2023-01-02T06:59:08.567Z,193.39271
2023-01-02T07:04:10.144Z,221.47748
2023-01-02T07:09:12.067Z,219
2023-01-02T07:14:13.557Z,208.37768
2023-01-02T07:19:15.198Z,217.77778
2023-01-02T07:24:16.822Z,225.27854
2023-01-02T07:29:18.365Z,226.56881
2023-01-02T07:34:20.234Z,233.20188
2023-01-02T07:39:21.786Z,268.21053
2023-01-02T07:44:23.258Z,296
2023-01-02T07:49:25.207Z,243.02913
2023-01-02T07:54:27.173Z,225.27854
2023-01-02T07:59:28.923Z,208.37768
2023-01-02T08:04:30.504Z,214.17544
2023-01-02T08:09:32.148Z,243.02913
2023-01-02T08:14:33.629Z,256.69036
2023-01-02T08:19:35.476Z,284.33149
2023-01-02T08:45:19.269Z,357.42282
2023-01-02T08:50:21.013Z,448.91803
2023-01-02T08:55:22.631Z,390.37681
2023-01-02T09:00:24.145Z,436.8
2023-01-02T09:05:25.608Z,453.09091
2023-01-02T09:10:27.447Z,432.88889
2023-01-02T09:15:29.413Z,440.77419
2023-01-02T09:20:31.138Z,425.25
2023-01-02T09:25:32.749Z,498.95495
2023-01-02T09:30:34.596Z,494
2023-01-02T09:35:36.388Z,553.90099
2023-01-02T09:40:38.132Z,547.92157
2023-01-02T09:45:40.175Z,436.8
2023-01-02T09:50:41.928Z,407.15789
2023-01-02T09:55:43.693Z,475.03448
2023-01-02T10:00:45.494Z,461.64706
2023-01-02T10:05:47.265Z,453.09091
2023-01-02T10:10:49.152Z,407.15789
2023-01-02T10:15:51.263Z,371.77778
2023-01-02T10:20:53.125Z,374.76923
2023-01-02T10:25:54.829Z,436.8
2023-01-02T10:30:56.412Z,489.13274
2023-01-02T10:35:58.086Z,457.33333
2023-01-02T10:40:59.563Z,374.76923
2023-01-02T10:46:01.421Z,374.76923
2023-01-02T10:51:02.895Z,365.91781
2023-01-02T10:56:04.468Z,403.70149
2023-01-02T11:01:06.019Z,329
2023-01-02T11:06:26.039Z,354.66667
2023-01-02T11:11:29.364Z,341.41935
2023-01-02T11:16:31.380Z,341.41935
2023-01-02T11:21:33.306Z,371.77778
2023-01-02T11:26:35.053Z,351.94702
2023-01-02T11:31:36.997Z,400.2963
2023-01-02T11:36:38.846Z,479.65217
2023-01-02T11:41:40.356Z,336.35669
2023-01-02T11:46:42.513Z,310.66667
2023-01-02T11:51:44.135Z,351.94702
2023-01-02T11:56:45.618Z,400.2963
2023-01-02T12:01:47.218Z,417.84615
2023-01-02T12:06:48.804Z,453.09091
2023-01-02T12:11:50.544Z,466.0339
2023-01-02T12:16:52.158Z,530.66667
2023-01-02T12:21:53.673Z,466.0339
2023-01-02T12:26:55.168Z,530.66667
2023-01-02T12:32:01.200Z,377.80282
2023-01-02T12:37:06.218Z,429.03937
2023-01-02T12:42:07.882Z,429.03937
2023-01-02T12:47:09.508Z,384
2023-01-02T12:52:11.332Z,403.70149
2023-01-02T12:57:15.731Z,417.84615
2023-01-02T13:02:22.270Z,421.51938
2023-01-02T13:07:24.171Z,410.66667
2023-01-02T13:12:25.928Z,536.30769
2023-01-02T13:17:27.954Z,457.33333
2023-01-02T13:22:29.691Z,536.30769
2023-01-02T13:27:31.448Z,484.35088
2023-01-02T13:32:32.913Z,410.66667
2023-01-02T13:37:34.681Z,479.65217
2023-01-02T13:42:36.458Z,410.66667
2023-01-02T13:47:38.468Z,403.70149
2023-01-02T13:52:40.175Z,417.84615
2023-01-02T13:57:41.605Z,475.03448
2023-01-02T14:02:43.862Z,466.0339
2023-01-02T14:07:45.864Z,440.77419
2023-01-02T14:12:53.186Z,461.64706
2023-01-02T14:17:55.525Z,444.81301
2023-01-02T14:22:57.350Z,498.95495
2023-01-02T14:27:59.018Z,498.95495
2023-01-02T14:33:00.613Z,547.92157
2023-01-02T14:38:02.387Z,566.22222
2023-01-02T14:43:03.959Z,660.27907
2023-01-02T14:48:05.701Z,677.33333
2023-01-02T14:53:07.288Z,686.16867
2023-01-02T14:58:08.767Z,498.95495
2023-01-02T15:03:10.511Z,453.09091
2023-01-02T15:08:12.185Z,436.8
2023-01-02T15:13:13.644Z,444.81301
2023-01-02T15:18:17.100Z,444.81301
2023-01-02T15:23:18.572Z,479.65217
2023-01-02T15:28:20.129Z,461.64706
2023-01-02T15:33:21.697Z,475.03448
2023-01-02T15:38:23.157Z,475.03448
2023-01-02T15:43:24.592Z,448.91803
2023-01-02T15:48:26.378Z,489.13274
2023-01-02T15:53:27.856Z,448.91803
2023-01-02T15:58:29.296Z,421.51938
2023-01-02T16:04:01.141Z,410.66667
2023-01-02T16:09:04.927Z,393.63504
2023-01-02T16:14:06.663Z,396.94118
2023-01-02T16:19:08.563Z,360.21622
2023-01-02T16:24:10.208Z,380.87943
2023-01-02T16:29:11.708Z,349.26316
2023-01-02T16:34:13.536Z,363.04762
2023-01-02T16:39:15.001Z,336.35669
2023-01-02T16:44:16.706Z,306.35294
2023-01-02T16:49:18.600Z,304.23392
2023-01-02T16:54:20.211Z,266.51309
2023-01-02T16:59:21.920Z,275.1828
2023-01-02T17:04:23.755Z,259.89744
2023-01-02T17:09:25.293Z,244.4878
2023-01-02T17:14:27.075Z,226.56881
2023-01-02T17:19:29.455Z,222.73303
2023-01-02T17:24:31.233Z,225.27854
2023-01-02T17:29:32.984Z,221.47748
2023-01-02T17:34:34.560Z,208.37768
2023-01-02T17:39:36.317Z,197.49794
2023-01-02T17:44:37.979Z,185.56863
2023-01-02T17:49:39.765Z,195.42857
2023-01-02T17:54:41.426Z,198.54545
2023-01-02T17:59:43.248Z,178.22053
2023-01-02T18:04:49.483Z,158.63415
2023-01-02T18:10:08.531Z,296
2023-01-02T18:15:11.306Z,304.23392
2023-01-02T18:20:13.212Z,288.13408
2023-01-02T18:25:14.687Z,298.02299
2023-01-02T18:30:15.982Z,294
2023-01-02T18:35:47.061Z,292.0226
2023-01-02T18:40:57.865Z,292.0226
2023-01-02T18:45:59.219Z,296
2023-01-02T18:51:01.416Z,280.61202
2023-01-02T18:56:03.892Z,280.61202
2023-01-02T19:01:05.467Z,284.33149
2023-01-02T19:06:07.107Z,294
2023-01-02T19:11:08.901Z,268.21053
2023-01-02T19:16:10.367Z,276.97297
2023-01-02T19:21:12.250Z,288.13408
2023-01-02T19:26:13.806Z,276.97297
2023-01-02T19:31:15.360Z,268.21053
2023-01-02T19:36:16.849Z,278.78261
2023-01-02T19:41:18.622Z,266.51309
2023-01-02T19:46:20.417Z,264.83333
2023-01-02T19:51:22.302Z,271.65957
2023-01-02T19:56:23.941Z,256.69036
2023-01-02T20:01:25.804Z,245.96078
2023-01-02T20:06:27.564Z,255.11111
2023-01-02T20:11:29.164Z,231.85047
2023-01-02T20:16:30.707Z,216.56637
2023-01-02T20:21:32.517Z,210.66667
2023-01-02T20:26:34.003Z,210.66667
2023-01-02T20:31:35.503Z,196.45902
2023-01-02T20:36:37.130Z,207.24786
2023-01-02T20:41:38.614Z,209.51724
2023-01-02T20:46:40.419Z,216.56637
2023-01-02T20:51:42.436Z,215.36564
2023-01-02T20:56:44.191Z,212.99563
2023-01-02T21:01:46.089Z,205.01695
2023-01-02T21:06:47.820Z,211.82609
2023-01-02T21:11:49.261Z,200.66667
2023-01-02T21:16:50.722Z,203.91561
2023-01-02T21:21:52.512Z,203.91561
2023-01-02T21:26:54.089Z,207.24786
2023-01-02T21:31:55.553Z,202.82353
2023-01-02T21:36:57.216Z,205.01695
2023-01-02T21:41:58.701Z,209.51724
2023-01-02T21:47:00.322Z,199.60166
2023-01-02T21:52:02.138Z,197.49794
2023-01-02T21:57:03.660Z,193.39271
2023-01-02T22:02:05.319Z,191.38956
2023-01-02T22:07:31.782Z,197.49794
2023-01-02T22:12:34.514Z,200.66667
2023-01-02T22:17:36.055Z,191.38956
2023-01-02T22:22:38.056Z,186.51969
2023-01-02T22:27:39.760Z,191.38956
2023-01-02T22:32:41.505Z,185.56863
2023-01-02T22:37:43.368Z,172.99628
2023-01-02T22:43:00.979Z,177.33333
2023-01-02T22:48:03.411Z,173.85075
2023-01-02T22:53:05.475Z,165.58273
2023-01-02T22:58:07.012Z,154.9589
2023-01-02T23:03:08.547Z,154.9589
2023-01-02T23:08:10.517Z,150.02007
2023-01-02T23:13:12.334Z,145.96721
2023-01-02T23:18:14.131Z,147.97351
2023-01-02T23:23:16.118Z,146.63158
2023-01-02T23:28:32.253Z,147.97351
2023-01-02T23:33:58.147Z,147.30033
2023-01-02T23:38:59.723Z,144.65147
2023-01-02T23:44:01.190Z,147.97351
2023-01-02T23:49:02.612Z,145.96721
2023-01-02T23:54:04.309Z,144.65147
2023-01-02T23:59:06.076Z,140.80511
